createdAt,value
2023-03-20T00:03:20.052Z,76.40
2023-03-20T00:06:24.095Z,76.94
2023-03-20T00:18:36.231Z,77.09
2023-03-20T00:22:03.179Z,76.91
2023-03-20T00:25:44.540Z,76.72
2023-03-20T00:33:07.962Z,77.21
2023-03-20T00:40:17.312Z,77.03
2023-03-20T00:55:45.744Z,77.08
2023-03-20T01:03:13.462Z,77.24
2023-03-20T01:14:44.401Z,77.53
2023-03-20T01:26:42.093Z,77.85
2023-03-20T01:37:56.230Z,78.40
2023-03-20T01:41:04.308Z,78.32
2023-03-20T01:48:19.962Z,78.85
2023-03-20T01:55:35.532Z,78.72
2023-03-20T02:03:26.976Z,78.66
2023-03-20T02:06:29.051Z,78.72
2023-03-20T02:17:11.537Z,78.53
2023-03-20T02:20:55.452Z,78.24
2023-03-20T02:24:26.010Z,77.92
2023-03-20T02:28:10.314Z,78.06
2023-03-20T02:32:13.738Z,78.25
2023-03-20T02:36:07.852Z,78.35
2023-03-20T02:40:10.522Z,78.19
2023-03-20T02:43:34.533Z,78.55
2023-03-20T02:47:02.206Z,78.63
2023-03-20T02:50:52.539Z,78.24
2023-03-20T03:06:23.419Z,78.28
2023-03-20T03:13:10.498Z,78.60
2023-03-20T03:36:01.400Z,79.11
2023-03-20T03:43:43.156Z,79.84
2023-03-20T03:47:30.535Z,80.01
2023-03-20T03:50:50.824Z,80.22
2023-03-20T03:54:50.413Z,80.21
2023-03-20T04:02:26.216Z,80.51
2023-03-20T04:05:57.823Z,80.64
2023-03-20T04:09:17.641Z,80.36
2023-03-20T04:19:11.621Z,80.75
2023-03-20T04:22:09.336Z,80.98
2023-03-20T04:29:39.210Z,81.44
2023-03-20T04:32:09.734Z,81.13
2023-03-20T04:34:49.730Z,80.92
2023-03-20T04:38:08.025Z,81.20
2023-03-20T04:40:52.837Z,80.99
2023-03-20T04:43:22.936Z,81.11
2023-03-20T04:45:51.053Z,80.94
2023-03-20T04:48:18.667Z,80.95
2023-03-20T04:50:56.471Z,80.71
2023-03-20T04:53:40.447Z,80.87
2023-03-20T04:56:14.965Z,80.95
2023-03-20T04:58:46.838Z,80.62
2023-03-20T05:01:25.140Z,80.63
2023-03-20T05:03:53.341Z,80.61
2023-03-20T05:06:25.890Z,80.72
2023-03-20T05:08:52.933Z,80.90
2023-03-20T05:11:28.785Z,80.99
2023-03-20T05:14:09.563Z,81.13
2023-03-20T05:17:10.400Z,81.40
2023-03-20T05:19:55.683Z,81.57
2023-03-20T05:22:49.305Z,81.50
2023-03-20T05:25:38.163Z,81.62
2023-03-20T05:28:34.618Z,81.42
2023-03-20T05:31:29.649Z,81.61
2023-03-20T05:34:24.222Z,81.46
2023-03-20T05:37:44.308Z,81.48
2023-03-20T05:41:07.271Z,81.77
2023-03-20T05:44:37.651Z,81.75
2023-03-20T05:48:05.256Z,81.68
2023-03-20T05:57:42.752Z,81.59
2023-03-20T06:00:33.367Z,81.68
2023-03-20T06:03:18.830Z,81.64
2023-03-20T06:06:03.984Z,81.59
2023-03-20T06:08:30.796Z,81.39
2023-03-20T06:10:59.582Z,81.00
2023-03-20T06:13:26.781Z,81.44
2023-03-20T06:15:53.536Z,81.27
2023-03-20T06:18:23.935Z,81.17
2023-03-20T06:20:54.717Z,81.53
2023-03-20T06:23:22.452Z,81.56
2023-03-20T06:26:04.393Z,82.02
2023-03-20T06:28:48.336Z,82.41
2023-03-20T06:31:18.252Z,82.45
2023-03-20T06:33:48.127Z,82.98
2023-03-20T06:36:20.476Z,82.97
2023-03-20T06:38:54.232Z,83.27
2023-03-20T06:41:33.736Z,83.73
2023-03-20T06:44:04.035Z,83.93
2023-03-20T06:46:51.284Z,84.28
2023-03-20T06:49:18.342Z,84.09
2023-03-20T06:51:47.762Z,84.76
2023-03-20T06:54:31.895Z,84.29
2023-03-20T06:59:47.934Z,84.76
2023-03-20T07:02:16.406Z,84.94
2023-03-20T07:05:00.197Z,84.91
2023-03-20T07:24:07.452Z,85.57
2023-03-20T07:26:34.544Z,85.55
2023-03-20T07:29:02.227Z,85.87
2023-03-20T07:31:29.974Z,85.65
2023-03-20T07:34:08.138Z,85.80
2023-03-20T07:36:35.227Z,85.76
2023-03-20T07:39:04.589Z,85.56
2023-03-20T07:41:32.571Z,86.15
2023-03-20T07:44:03.582Z,86.12
2023-03-20T07:46:49.564Z,86.37
2023-03-20T07:49:20.186Z,86.42
2023-03-20T07:51:47.717Z,86.20
2023-03-20T07:54:15.349Z,86.35
2023-03-20T07:56:42.528Z,86.31
2023-03-20T07:59:09.521Z,86.24
2023-03-20T08:01:36.181Z,86.29
2023-03-20T08:04:03.055Z,86.45
2023-03-20T08:06:29.845Z,86.42
2023-03-20T08:08:56.720Z,86.28
2023-03-20T08:11:23.853Z,86.24
2023-03-20T08:13:50.782Z,86.22
2023-03-20T08:16:17.665Z,85.44
2023-03-20T08:18:44.500Z,85.45
2023-03-20T08:21:11.566Z,85.09
2023-03-20T08:23:38.261Z,85.30
2023-03-20T08:26:05.075Z,85.04
2023-03-20T08:28:46.486Z,84.91
2023-03-20T08:31:15.078Z,84.79
2023-03-20T08:33:41.852Z,84.77
2023-03-20T08:36:08.750Z,84.76
2023-03-20T08:38:35.946Z,84.67
2023-03-20T08:41:02.767Z,84.27
2023-03-20T08:43:29.620Z,84.46
2023-03-20T08:45:56.622Z,84.02
2023-03-20T08:48:23.465Z,84.06
2023-03-20T08:50:50.429Z,83.88
2023-03-20T08:53:17.116Z,83.40
2023-03-20T08:55:52.820Z,83.14
2023-03-20T08:58:22.408Z,82.94
2023-03-20T09:00:49.192Z,82.87
2023-03-20T09:03:18.747Z,82.20
2023-03-20T09:05:46.812Z,82.00
2023-03-20T09:08:13.936Z,81.69
2023-03-20T09:10:43.811Z,81.04
2023-03-20T09:13:26.239Z,81.05
2023-03-20T09:15:54.617Z,80.05
2023-03-20T09:18:21.913Z,79.48
2023-03-20T09:20:49.472Z,79.40
2023-03-20T09:23:16.169Z,78.53
2023-03-20T09:25:42.882Z,78.35
2023-03-20T09:28:09.593Z,77.69
2023-03-20T09:30:36.805Z,77.49
2023-03-20T09:33:03.760Z,76.65
2023-03-20T09:35:30.498Z,76.87
2023-03-20T09:37:57.169Z,76.04
2023-03-20T09:40:37.746Z,76.22
2023-03-20T09:43:31.044Z,75.71
2023-03-20T09:46:07.087Z,75.77
2023-03-20T09:48:54.261Z,75.88
2023-03-20T09:51:38.736Z,75.64
2023-03-20T09:54:29.318Z,76.07
2023-03-20T09:56:57.623Z,76.18
2023-03-20T09:59:26.142Z,75.98
2023-03-20T10:02:00.052Z,75.82
2023-03-20T10:04:29.468Z,75.83
2023-03-20T10:06:56.901Z,75.22
2023-03-20T10:09:26.460Z,75.19
2023-03-20T10:12:11.095Z,74.86
2023-03-20T10:15:02.264Z,74.81
2023-03-20T10:17:47.730Z,74.69
2023-03-20T10:20:43.543Z,74.32
2023-03-20T10:23:18.524Z,73.66
2023-03-20T10:25:52.429Z,73.59
2023-03-20T10:28:25.181Z,73.30
2023-03-20T10:30:58.717Z,73.39
2023-03-20T10:33:43.668Z,73.00
2023-03-20T10:36:47.150Z,73.07
2023-03-20T10:39:20.201Z,72.72
2023-03-20T10:41:53.578Z,72.63
2023-03-20T10:44:33.230Z,72.17
2023-03-20T10:47:02.067Z,72.29
2023-03-20T10:49:38.606Z,71.76
2023-03-20T10:52:12.202Z,71.60
2023-03-20T10:55:20.796Z,71.24
2023-03-20T10:57:51.960Z,71.23
2023-03-20T11:00:22.467Z,71.16
2023-03-20T11:02:49.424Z,71.08
2023-03-20T11:05:25.091Z,70.50
2023-03-20T11:08:02.109Z,70.52
2023-03-20T11:10:29.736Z,70.67
2023-03-20T11:12:59.222Z,71.13
2023-03-20T11:15:33.296Z,71.27
2023-03-20T11:18:05.678Z,71.10
2023-03-20T11:20:40.489Z,71.26
2023-03-20T11:23:11.048Z,71.39
2023-03-20T11:25:40.066Z,71.22
2023-03-20T11:28:27.400Z,71.59
2023-03-20T11:31:05.433Z,71.62
2023-03-20T11:33:36.656Z,71.71
2023-03-20T11:36:11.009Z,71.57
2023-03-20T11:38:43.728Z,71.72
2023-03-20T11:41:24.630Z,71.57
2023-03-20T11:43:51.462Z,71.56
2023-03-20T11:46:19.996Z,71.66
2023-03-20T11:48:47.323Z,71.85
2023-03-20T11:51:15.514Z,71.74
2023-03-20T11:53:58.527Z,71.79
2023-03-20T11:56:30.018Z,71.55
2023-03-20T11:59:04.022Z,71.58
2023-03-20T12:01:44.742Z,71.65
2023-03-20T12:04:14.288Z,71.54
2023-03-20T12:06:47.145Z,71.65
2023-03-20T12:09:42.848Z,71.67
2023-03-20T12:12:21.366Z,71.46
2023-03-20T12:14:58.502Z,71.24
2023-03-20T12:17:32.023Z,71.68
2023-03-20T12:20:04.473Z,71.20
2023-03-20T12:22:36.361Z,71.43
2023-03-20T12:25:18.434Z,71.58
2023-03-20T12:27:49.086Z,71.87
2023-03-20T12:30:37.152Z,72.02
2023-03-20T12:33:12.466Z,71.92
2023-03-20T12:35:44.813Z,71.91
2023-03-20T12:38:24.060Z,71.92
2023-03-20T12:40:55.515Z,71.68
2023-03-20T12:43:26.416Z,71.93
2023-03-20T12:46:27.425Z,71.90
2023-03-20T12:48:59.662Z,71.96
2023-03-20T12:51:40.018Z,72.32
2023-03-20T12:54:19.881Z,72.23
2023-03-20T12:57:02.443Z,72.37
2023-03-20T12:59:39.561Z,72.20
2023-03-20T13:02:33.812Z,72.31
2023-03-20T13:05:43.794Z,72.51
2023-03-20T13:08:27.798Z,72.39
2023-03-20T13:11:13.261Z,72.03
2023-03-20T13:13:43.578Z,72.03
2023-03-20T13:16:34.557Z,72.09
2023-03-20T13:19:13.910Z,72.29
2023-03-20T13:21:56.754Z,72.13
2023-03-20T13:24:48.645Z,71.77
2023-03-20T13:27:30.451Z,71.69
2023-03-20T13:30:19.541Z,71.72
2023-03-20T13:32:57.596Z,71.83
2023-03-20T13:35:43.927Z,71.52
2023-03-20T13:38:34.214Z,71.88
2023-03-20T13:41:02.856Z,71.86
2023-03-20T13:43:50.752Z,71.96
2023-03-20T13:46:23.064Z,71.89
2023-03-20T13:48:51.663Z,72.03
2023-03-20T13:51:42.070Z,72.36
2023-03-20T13:54:30.994Z,72.50
2023-03-20T13:57:34.243Z,72.40
2023-03-20T14:00:18.624Z,72.40
2023-03-20T14:03:14.614Z,72.48
2023-03-20T14:05:42.879Z,72.54
2023-03-20T14:08:27.798Z,72.34
2023-03-20T14:10:56.111Z,71.97
2023-03-20T14:13:23.400Z,72.50
2023-03-20T14:15:56.116Z,72.45
2023-03-20T14:18:25.353Z,71.93
2023-03-20T14:21:10.154Z,72.25
2023-03-20T14:23:38.930Z,72.00
2023-03-20T14:26:09.488Z,72.39
2023-03-20T14:29:02.913Z,72.11
2023-03-20T14:31:38.381Z,72.14
2023-03-20T14:34:17.651Z,72.37
2023-03-20T14:36:52.010Z,72.02
2023-03-20T14:39:46.949Z,72.10
2023-03-20T14:42:35.075Z,72.25
2023-03-20T14:45:13.675Z,72.36
2023-03-20T14:47:51.432Z,72.17
2023-03-20T14:50:41.636Z,72.33
2023-03-20T14:53:11.810Z,71.84
2023-03-20T14:55:52.125Z,72.34
2023-03-20T14:58:41.541Z,72.11
2023-03-20T15:01:17.676Z,72.16
2023-03-20T15:03:50.590Z,72.29
2023-03-20T15:06:19.495Z,72.19
2023-03-20T15:08:51.115Z,72.34
2023-03-20T15:11:18.178Z,72.09
2023-03-20T15:13:45.531Z,72.56
2023-03-20T15:16:14.170Z,72.42
2023-03-20T15:18:43.769Z,72.41
2023-03-20T15:21:19.276Z,72.42
2023-03-20T15:23:47.228Z,72.42
2023-03-20T15:26:16.963Z,72.82
2023-03-20T15:28:45.313Z,72.60
2023-03-20T15:31:24.300Z,72.53
2023-03-20T15:33:51.434Z,72.80
2023-03-20T15:36:20.799Z,72.40
2023-03-20T15:38:48.470Z,72.37
2023-03-20T15:41:38.306Z,72.43
2023-03-20T15:44:18.045Z,72.48
2023-03-20T15:47:03.553Z,72.53
2023-03-20T15:49:32.299Z,72.71
2023-03-20T15:52:06.948Z,72.66
2023-03-20T15:54:34.680Z,72.67
2023-03-20T15:57:02.309Z,72.56
2023-03-20T15:59:30.609Z,72.13
2023-03-20T16:01:58.708Z,72.11
2023-03-20T16:04:26.290Z,71.78
2023-03-20T16:07:00.852Z,72.07
2023-03-20T16:09:28.730Z,72.17
2023-03-20T16:12:00.697Z,71.79
2023-03-20T16:14:32.395Z,71.46
2023-03-20T16:17:00.587Z,71.63
2023-03-20T16:19:29.123Z,71.35
2023-03-20T16:21:59.255Z,71.56
2023-03-20T16:24:29.721Z,71.28
2023-03-20T16:26:57.382Z,71.72
2023-03-20T16:29:25.941Z,71.40
2023-03-20T16:31:56.852Z,71.67
2023-03-20T16:34:32.529Z,71.83
2023-03-20T16:37:02.159Z,71.75
2023-03-20T16:39:30.850Z,71.62
2023-03-20T16:42:24.500Z,71.77
2023-03-20T16:44:58.360Z,71.98
2023-03-20T16:47:33.766Z,71.99
2023-03-20T16:50:11.131Z,71.86
2023-03-20T16:52:40.615Z,72.05
2023-03-20T16:55:16.011Z,71.95
2023-03-20T16:57:43.142Z,71.65
2023-03-20T17:00:31.754Z,71.79
2023-03-20T17:03:06.992Z,71.87
2023-03-20T17:05:42.467Z,71.76
2023-03-20T17:08:13.393Z,71.69
2023-03-20T17:10:43.729Z,71.81
2023-03-20T17:13:10.530Z,71.87
2023-03-20T17:15:37.316Z,72.30
2023-03-20T17:18:04.473Z,72.26
2023-03-20T17:20:32.135Z,71.88
2023-03-20T17:22:58.816Z,72.45
2023-03-20T17:25:25.500Z,72.12
2023-03-20T17:27:54.703Z,72.16
2023-03-20T17:30:25.192Z,72.17
2023-03-20T17:32:52.414Z,72.30
2023-03-20T17:35:19.620Z,71.96
2023-03-20T17:37:46.526Z,72.06
2023-03-20T17:40:25.304Z,71.95
2023-03-20T17:42:52.096Z,72.10
2023-03-20T17:45:20.809Z,72.36
2023-03-20T17:47:48.698Z,72.40
2023-03-20T17:50:27.609Z,72.16
2023-03-20T17:52:55.094Z,72.47
2023-03-20T17:55:22.469Z,72.33
2023-03-20T17:57:49.470Z,72.13
2023-03-20T18:00:22.216Z,72.45
2023-03-20T18:02:48.937Z,72.62
2023-03-20T18:05:15.870Z,72.48
2023-03-20T18:07:42.784Z,72.29
2023-03-20T18:10:21.075Z,72.54
2023-03-20T18:12:47.811Z,72.77
2023-03-20T18:15:14.650Z,72.71
2023-03-20T18:17:41.372Z,72.86
2023-03-20T18:20:22.514Z,72.88
2023-03-20T18:22:49.298Z,73.17
2023-03-20T18:25:16.040Z,73.06
2023-03-20T18:27:43.624Z,73.25
2023-03-20T18:30:19.888Z,73.17
2023-03-20T18:32:47.458Z,73.12
2023-03-20T18:35:14.675Z,72.93
2023-03-20T18:37:41.774Z,73.28
2023-03-20T18:40:32.982Z,73.04
2023-03-20T18:43:00.048Z,73.43
2023-03-20T18:45:28.594Z,73.33
2023-03-20T18:47:56.609Z,73.62
2023-03-20T18:50:31.533Z,73.70
2023-03-20T18:52:59.680Z,73.58
2023-03-20T18:55:29.688Z,73.62
2023-03-20T18:57:58.505Z,73.59
2023-03-20T19:00:36.058Z,73.61
2023-03-20T19:03:04.085Z,73.61
2023-03-20T19:05:31.381Z,73.82
2023-03-20T19:07:59.913Z,73.81
2023-03-20T19:10:28.252Z,73.73
2023-03-20T19:12:56.117Z,73.59
2023-03-20T19:15:25.968Z,73.76
2023-03-20T19:17:53.510Z,73.92
2023-03-20T19:20:37.365Z,73.83
2023-03-20T19:23:10.475Z,73.76
2023-03-20T19:25:38.139Z,73.77
2023-03-20T19:28:05.664Z,74.18
2023-03-20T19:30:38.776Z,74.04
2023-03-20T19:33:07.060Z,74.06
2023-03-20T19:38:22.751Z,74.16
2023-03-20T19:40:53.217Z,74.05
2023-03-20T19:43:21.834Z,74.44
2023-03-20T19:45:51.923Z,74.19
2023-03-20T19:48:23.363Z,74.28
2023-03-20T19:50:51.302Z,74.44
2023-03-20T19:53:21.607Z,74.53
2023-03-20T19:55:48.421Z,74.38
2023-03-20T19:58:15.122Z,74.39
2023-03-20T20:01:11.152Z,74.53
2023-03-20T20:03:29.667Z,74.25
2023-03-20T20:05:56.731Z,74.71
2023-03-20T20:08:38.284Z,74.63
2023-03-20T20:11:14.605Z,74.67
2023-03-20T20:14:01.884Z,74.28
2023-03-20T20:16:29.237Z,74.27
2023-03-20T20:18:56.280Z,74.56
2023-03-20T20:24:10.388Z,74.07
2023-03-20T20:26:44.839Z,74.16
2023-03-20T20:29:16.186Z,74.00
2023-03-20T20:31:43.999Z,74.28
2023-03-20T20:39:46.197Z,73.80
2023-03-20T20:42:15.280Z,73.76
2023-03-20T20:44:41.979Z,73.79
2023-03-20T20:47:10.504Z,73.70
2023-03-20T20:49:37.276Z,73.63
2023-03-20T20:52:04.183Z,73.47
2023-03-20T20:54:31.034Z,73.12
2023-03-20T20:56:57.720Z,72.98
2023-03-20T20:59:24.453Z,72.78
2023-03-20T21:01:52.236Z,72.34
2023-03-20T21:04:19.577Z,72.14
2023-03-20T21:07:08.079Z,71.98
2023-03-20T21:09:34.138Z,71.90
2023-03-20T21:12:01.261Z,71.71
2023-03-20T21:14:28.194Z,71.53
2023-03-20T21:17:00.939Z,71.48
2023-03-20T21:19:34.743Z,71.27
2023-03-20T21:22:01.838Z,71.14
2023-03-20T21:24:32.792Z,71.02
2023-03-20T21:27:02.186Z,70.86
2023-03-20T21:29:29.018Z,70.95
2023-03-20T21:31:55.967Z,70.56
2023-03-20T21:34:23.065Z,70.77
2023-03-20T21:36:51.641Z,70.39
2023-03-20T21:39:21.779Z,70.44
2023-03-20T21:41:50.083Z,70.58
2023-03-20T21:44:50.251Z,70.33
2023-03-20T21:53:22.378Z,70.25
2023-03-20T22:01:49.509Z,70.45
2023-03-20T22:04:54.923Z,70.52
2023-03-20T22:15:46.242Z,70.47
2023-03-20T22:18:42.162Z,70.72
2023-03-20T22:21:41.843Z,70.47
2023-03-20T22:38:14.443Z,71.22
2023-03-20T22:46:03.663Z,71.45
2023-03-20T22:48:34.981Z,71.79
2023-03-20T22:51:01.739Z,72.14
2023-03-20T22:53:28.666Z,72.31
2023-03-20T22:55:55.381Z,72.33
2023-03-20T22:58:23.546Z,72.47
2023-03-20T23:00:50.508Z,72.53
2023-03-20T23:03:42.036Z,72.53
2023-03-20T23:06:29.249Z,72.57
2023-03-20T23:08:58.537Z,72.47
2023-03-20T23:11:48.407Z,72.68
2023-03-20T23:14:45.466Z,72.39
2023-03-20T23:17:32.090Z,72.73
2023-03-20T23:20:10.325Z,72.65
2023-03-20T23:22:38.442Z,72.34
2023-03-20T23:25:16.441Z,72.17
2023-03-20T23:27:50.856Z,72.24
2023-03-20T23:30:19.796Z,72.36
2023-03-20T23:32:47.280Z,72.33
2023-03-20T23:35:14.081Z,72.45
2023-03-20T23:37:40.829Z,71.88
2023-03-20T23:40:08.439Z,72.09
2023-03-20T23:42:35.541Z,71.98
2023-03-20T23:45:17.151Z,72.35
2023-03-20T23:47:46.779Z,72.07
2023-03-20T23:50:26.352Z,72.25
2023-03-20T23:53:03.431Z,72.15
2023-03-20T23:55:35.457Z,72.27
2023-03-20T23:58:02.978Z,72.06
